createdAt,value
2023-02-02T00:01:55.786Z,7.43
2023-02-02T00:04:59.048Z,10.82
2023-02-02T00:08:02.403Z,17.43
2023-02-02T00:11:07.198Z,13.55
2023-02-02T00:14:12.338Z,18.20
2023-02-02T00:17:15.688Z,9.85
2023-02-02T00:20:18.822Z,13.47
2023-02-02T00:23:21.825Z,9.90
2023-02-02T00:26:25.485Z,11.00
2023-02-02T00:29:32.623Z,11.75
2023-02-02T00:32:35.628Z,15.55
2023-02-02T00:35:43.264Z,10.77
2023-02-02T00:38:47.047Z,11.82
2023-02-02T00:41:50.157Z,12.57
2023-02-02T00:45:12.542Z,12.40
2023-02-02T00:48:16.276Z,13.55
2023-02-02T00:51:19.260Z,9.02
2023-02-02T00:54:22.331Z,10.82
2023-02-02T00:57:25.520Z,10.30
2023-02-02T01:00:30.055Z,10.27
2023-02-02T01:03:33.195Z,11.07
2023-02-02T01:06:36.581Z,9.57
2023-02-02T01:09:39.706Z,11.27
2023-02-02T01:12:43.429Z,7.43
2023-02-02T01:15:47.822Z,6.32
2023-02-02T01:18:52.088Z,11.10
2023-02-02T01:21:55.512Z,7.20
2023-02-02T01:24:58.646Z,6.65
2023-02-02T01:28:01.772Z,12.87
2023-02-02T01:31:11.562Z,10.43
2023-02-02T01:34:23.646Z,8.75
2023-02-02T01:37:26.660Z,9.48
2023-02-02T01:40:29.698Z,4.78
2023-02-02T01:43:55.016Z,8.55
2023-02-02T01:46:59.600Z,11.10
2023-02-02T01:50:04.260Z,6.13
2023-02-02T01:53:09.531Z,5.88
2023-02-02T01:56:29.483Z,6.22
2023-02-02T01:59:34.126Z,7.97
2023-02-02T02:02:40.706Z,9.75
2023-02-02T02:05:52.543Z,4.75
2023-02-02T02:09:00.319Z,10.13
2023-02-02T02:12:03.404Z,7.05
2023-02-02T02:15:25.965Z,7.30
2023-02-02T02:18:51.770Z,3.28
2023-02-02T02:22:21.497Z,5.20
2023-02-02T02:26:11.384Z,9.48
2023-02-02T02:30:02.037Z,6.40
2023-02-02T02:33:12.319Z,6.85
2023-02-02T02:36:27.005Z,7.43
2023-02-02T02:39:40.019Z,4.57
2023-02-02T02:42:49.823Z,8.23
2023-02-02T02:45:54.534Z,11.55
2023-02-02T02:49:02.107Z,4.72
2023-02-02T02:52:05.255Z,6.53
2023-02-02T02:55:11.690Z,4.05
2023-02-02T02:58:22.892Z,2.55
2023-02-02T03:01:35.861Z,2.75
2023-02-02T03:04:55.832Z,6.53
2023-02-02T03:08:11.348Z,5.57
2023-02-02T03:11:16.703Z,6.65
2023-02-02T03:14:20.355Z,6.97
2023-02-02T03:17:23.919Z,6.55
2023-02-02T03:20:28.878Z,2.22
2023-02-02T03:23:32.943Z,8.48
2023-02-02T03:29:40.222Z,3.40
2023-02-02T03:32:44.159Z,7.10
2023-02-02T03:35:49.138Z,4.32
2023-02-02T03:38:52.510Z,7.18
2023-02-02T03:41:56.058Z,2.47
2023-02-02T03:45:00.544Z,3.13
2023-02-02T03:48:06.076Z,4.57
2023-02-02T03:51:12.789Z,6.20
2023-02-02T03:54:16.669Z,4.40
2023-02-02T03:57:20.360Z,3.38
2023-02-02T04:00:24.161Z,4.68
2023-02-02T04:03:27.745Z,4.85
2023-02-02T04:06:34.160Z,3.75
2023-02-02T04:09:38.879Z,5.60
2023-02-02T04:12:42.758Z,4.82
2023-02-02T04:15:46.261Z,7.75
2023-02-02T04:18:50.081Z,7.15
2023-02-02T04:21:55.954Z,6.72
2023-02-02T04:24:59.388Z,4.75
2023-02-02T04:28:02.727Z,7.15
2023-02-02T04:31:06.364Z,8.07
2023-02-02T04:34:10.221Z,4.25
2023-02-02T04:37:15.137Z,4.03
2023-02-02T04:40:19.093Z,5.93
2023-02-02T04:43:22.484Z,8.02
2023-02-02T04:46:26.563Z,4.25
2023-02-02T04:49:30.434Z,4.65
2023-02-02T04:52:35.634Z,3.65
2023-02-02T04:55:40.225Z,5.78
2023-02-02T04:58:44.092Z,4.18
2023-02-02T05:01:48.259Z,3.75
2023-02-02T05:04:52.197Z,2.17
2023-02-02T05:07:56.983Z,4.68
2023-02-02T05:11:00.537Z,4.07
2023-02-02T05:14:04.072Z,2.72
2023-02-02T05:17:08.756Z,4.35
2023-02-02T05:20:16.641Z,4.78
2023-02-02T05:23:21.602Z,2.35
2023-02-02T05:26:27.376Z,4.10
2023-02-02T05:29:31.698Z,4.20
2023-02-02T05:32:35.143Z,3.47
2023-02-02T05:35:39.010Z,4.30
2023-02-02T05:38:43.779Z,2.75
2023-02-02T05:41:47.150Z,4.80
2023-02-02T05:44:50.526Z,3.63
2023-02-02T05:47:55.829Z,2.47
2023-02-02T05:51:03.298Z,1.35
2023-02-02T05:54:08.724Z,3.20
2023-02-02T05:57:12.376Z,3.10
2023-02-02T06:00:17.665Z,3.20
2023-02-02T06:03:21.319Z,6.28
2023-02-02T06:06:24.910Z,3.45
2023-02-02T06:09:29.663Z,7.38
2023-02-02T06:12:33.364Z,2.05
2023-02-02T06:15:37.450Z,3.63
2023-02-02T06:18:40.994Z,2.47
2023-02-02T06:21:44.375Z,9.15
2023-02-02T06:24:49.153Z,3.17
2023-02-02T06:27:56.241Z,3.97
2023-02-02T06:31:05.879Z,6.35
2023-02-02T06:34:13.522Z,2.30
2023-02-02T06:37:17.006Z,6.10
2023-02-02T06:40:22.591Z,3.83
2023-02-02T06:43:26.100Z,1.65
2023-02-02T06:46:29.762Z,3.45
2023-02-02T06:49:33.237Z,3.47
2023-02-02T06:52:36.827Z,2.78
2023-02-02T06:55:41.550Z,3.70
2023-02-02T06:58:45.578Z,6.22
2023-02-02T07:04:53.304Z,1.73
2023-02-02T07:07:56.770Z,3.97
2023-02-02T07:11:13.825Z,2.60
2023-02-02T07:14:20.037Z,4.10
2023-02-02T07:17:23.564Z,4.68
2023-02-02T07:20:27.326Z,3.20
2023-02-02T07:23:31.842Z,3.90
2023-02-02T07:26:37.510Z,4.40
2023-02-02T07:29:41.019Z,2.78
2023-02-02T07:32:48.583Z,4.00
2023-02-02T07:35:52.142Z,4.20
2023-02-02T07:38:57.390Z,1.77
2023-02-02T07:42:02.190Z,4.57
2023-02-02T07:45:24.571Z,3.03
2023-02-02T07:48:30.011Z,2.65
2023-02-02T07:51:33.868Z,1.83
2023-02-02T07:54:37.374Z,1.13
2023-02-02T07:57:42.782Z,3.33
2023-02-02T08:00:46.863Z,1.80
2023-02-02T08:06:54.398Z,2.28
2023-02-02T08:09:57.971Z,3.08
2023-02-02T08:13:02.905Z,3.60
2023-02-02T08:16:06.996Z,6.00
2023-02-02T08:19:11.655Z,2.63
2023-02-02T08:22:15.209Z,3.38
2023-02-02T08:25:18.786Z,6.80
2023-02-02T08:28:23.735Z,3.42
2023-02-02T08:31:30.277Z,1.77
2023-02-02T08:34:36.766Z,3.17
2023-02-02T08:37:40.123Z,2.72
2023-02-02T08:40:43.637Z,4.40
2023-02-02T08:43:48.456Z,2.97
2023-02-02T08:46:51.891Z,1.63
2023-02-02T08:49:55.253Z,5.60
2023-02-02T08:52:58.755Z,2.90
2023-02-02T08:56:04.014Z,4.93
2023-02-02T08:59:08.471Z,2.47
2023-02-02T09:02:13.783Z,1.52
2023-02-02T09:05:17.674Z,3.95
2023-02-02T09:08:21.071Z,3.67
2023-02-02T09:11:24.583Z,4.63
2023-02-02T09:14:29.404Z,2.42
2023-02-02T09:17:32.709Z,5.97
2023-02-02T09:20:36.416Z,2.77
2023-02-02T09:23:42.195Z,8.27
2023-02-02T09:26:46.650Z,5.30
2023-02-02T09:29:52.977Z,3.58
2023-02-02T09:32:56.073Z,3.80
2023-02-02T09:36:06.601Z,5.43
2023-02-02T09:39:12.670Z,5.72
2023-02-02T09:42:42.952Z,2.95
2023-02-02T09:46:01.117Z,4.68
2023-02-02T09:49:12.474Z,2.10
2023-02-02T09:52:22.876Z,1.65
2023-02-02T09:55:34.872Z,2.90
2023-02-02T09:58:48.574Z,4.57
2023-02-02T10:01:58.988Z,2.97
2023-02-02T10:05:11.144Z,2.08
2023-02-02T10:08:34.680Z,1.88
2023-02-02T10:11:47.233Z,5.43
2023-02-02T10:14:58.974Z,1.85
2023-02-02T10:18:14.906Z,3.85
2023-02-02T10:21:33.053Z,4.28
2023-02-02T10:24:37.120Z,9.52
2023-02-02T10:27:42.946Z,7.05
2023-02-02T10:30:55.049Z,4.40
2023-02-02T10:34:10.726Z,3.00
2023-02-02T10:37:28.091Z,9.27
2023-02-02T10:40:49.970Z,3.33
2023-02-02T10:44:14.949Z,3.08
2023-02-02T10:47:28.626Z,2.17
2023-02-02T10:50:33.048Z,2.33
2023-02-02T10:53:36.295Z,2.58
2023-02-02T10:56:52.485Z,2.13
2023-02-02T11:00:06.537Z,4.35
2023-02-02T11:03:14.370Z,1.65
2023-02-02T11:06:36.633Z,1.45
2023-02-02T11:09:43.704Z,2.50
2023-02-02T11:12:52.946Z,2.03
2023-02-02T11:16:22.577Z,4.53
2023-02-02T11:19:31.188Z,6.32
2023-02-02T11:22:39.499Z,1.90
2023-02-02T11:25:43.961Z,7.97
2023-02-02T11:28:50.873Z,4.35
2023-02-02T11:31:54.123Z,2.17
2023-02-02T11:35:21.597Z,1.40
2023-02-02T11:38:27.441Z,4.30
2023-02-02T11:41:32.930Z,2.92
2023-02-02T11:44:42.777Z,4.18
2023-02-02T11:47:47.385Z,3.80
2023-02-02T11:50:54.610Z,3.45
2023-02-02T11:54:07.667Z,1.52
2023-02-02T11:57:11.677Z,1.77
2023-02-02T12:00:26.985Z,5.10
2023-02-02T12:03:36.794Z,3.20
2023-02-02T12:06:40.876Z,3.72
2023-02-02T12:12:59.833Z,1.35
2023-02-02T12:16:18.675Z,4.68
2023-02-02T12:19:50.571Z,3.80
2023-02-02T12:23:30.282Z,3.47
2023-02-02T12:26:38.993Z,3.33
2023-02-02T12:30:19.143Z,2.22
2023-02-02T12:33:32.579Z,3.35
2023-02-02T12:36:51.156Z,4.93
2023-02-02T12:40:16.295Z,5.88
2023-02-02T12:43:35.405Z,2.60
2023-02-02T12:47:08.773Z,3.45
2023-02-02T12:50:31.523Z,1.42
2023-02-02T12:54:33.815Z,2.88
2023-02-02T12:57:37.342Z,3.88
2023-02-02T13:01:45.712Z,3.55
2023-02-02T13:05:12.665Z,3.22
2023-02-02T13:08:22.548Z,3.55
2023-02-02T13:11:38.537Z,2.63
2023-02-02T13:14:47.788Z,4.03
2023-02-02T13:17:56.746Z,4.43
2023-02-02T13:21:06.562Z,2.47
2023-02-02T13:24:19.253Z,3.00
2023-02-02T13:27:24.872Z,3.40
2023-02-02T13:30:35.364Z,1.83
2023-02-02T13:33:44.684Z,3.15
2023-02-02T13:36:54.194Z,5.43
2023-02-02T13:40:02.444Z,4.38
2023-02-02T13:43:25.763Z,3.60
2023-02-02T13:46:40.784Z,4.72
2023-02-02T13:49:52.142Z,4.05
2023-02-02T13:53:19.509Z,8.52
2023-02-02T13:56:45.646Z,3.58
2023-02-02T14:00:05.278Z,3.33
2023-02-02T14:03:33.603Z,7.95
2023-02-02T14:06:59.104Z,6.15
2023-02-02T14:10:04.318Z,4.88
2023-02-02T14:13:34.994Z,2.90
2023-02-02T14:16:52.270Z,3.70
2023-02-02T14:19:57.848Z,5.18
2023-02-02T14:23:02.586Z,4.45
2023-02-02T14:26:09.437Z,6.72
2023-02-02T14:29:59.836Z,6.32
2023-02-02T14:33:28.249Z,5.72
2023-02-02T14:36:32.416Z,8.88
2023-02-02T14:43:21.030Z,9.45
2023-02-02T14:46:35.567Z,7.93
2023-02-02T14:49:38.998Z,3.83
2023-02-02T14:52:42.528Z,5.93
2023-02-02T14:56:02.056Z,2.83
2023-02-02T14:59:07.382Z,7.30
2023-02-02T15:02:19.948Z,5.07
2023-02-02T15:05:46.365Z,6.78
2023-02-02T15:09:41.968Z,7.25
2023-02-02T15:16:04.449Z,11.02
2023-02-02T15:19:21.484Z,7.40
2023-02-02T15:22:33.156Z,6.88
2023-02-02T15:25:44.690Z,3.78
2023-02-02T15:28:57.177Z,8.10
2023-02-02T15:32:02.237Z,8.00
2023-02-02T15:35:15.994Z,6.35
2023-02-02T15:38:22.544Z,6.55
2023-02-02T15:41:33.114Z,6.55
2023-02-02T15:44:39.304Z,5.45
2023-02-02T15:47:43.449Z,10.15
2023-02-02T15:50:47.649Z,5.18
2023-02-02T15:53:54.690Z,8.25
2023-02-02T15:57:01.131Z,6.22
2023-02-02T16:00:28.054Z,5.00
2023-02-02T16:03:44.133Z,5.05
2023-02-02T16:06:48.201Z,4.82
2023-02-02T16:12:55.246Z,4.03
2023-02-02T16:16:03.972Z,7.25
2023-02-02T16:19:16.494Z,9.25
2023-02-02T16:22:25.395Z,2.45
2023-02-02T16:25:31.811Z,4.93
2023-02-02T16:28:36.361Z,4.40
2023-02-02T16:31:41.036Z,5.97
2023-02-02T16:34:47.246Z,5.10
2023-02-02T16:37:50.531Z,5.32
2023-02-02T16:41:07.834Z,4.40
2023-02-02T16:44:32.586Z,3.47
2023-02-02T16:47:40.177Z,5.82
2023-02-02T16:51:03.470Z,5.68
2023-02-02T16:54:20.860Z,8.10
2023-02-02T16:57:29.249Z,4.88
2023-02-02T17:00:33.719Z,6.07
2023-02-02T17:03:52.538Z,9.10
2023-02-02T17:06:58.861Z,8.05
2023-02-02T17:10:23.995Z,7.15
2023-02-02T17:13:41.974Z,4.40
2023-02-02T17:16:45.336Z,7.25
2023-02-02T17:19:49.722Z,6.35
2023-02-02T17:22:56.722Z,4.68
2023-02-02T17:26:00.992Z,4.55
2023-02-02T17:29:07.026Z,9.48
2023-02-02T17:32:14.148Z,7.28
2023-02-02T17:35:37.148Z,14.35
2023-02-02T17:38:46.854Z,16.23
2023-02-02T17:41:51.385Z,24.38
2023-02-02T17:44:55.035Z,21.30
2023-02-02T17:47:58.452Z,28.45
2023-02-02T17:51:07.342Z,26.05
2023-02-02T17:54:15.983Z,24.38
2023-02-02T17:57:20.027Z,28.90
2023-02-02T18:00:25.778Z,24.27
2023-02-02T18:03:34.450Z,23.77
2023-02-02T18:06:38.969Z,24.23
2023-02-02T18:09:42.611Z,28.58
2023-02-02T18:12:45.889Z,26.55
2023-02-02T18:15:50.227Z,26.40
2023-02-02T18:18:54.352Z,26.33
2023-02-02T18:25:01.706Z,26.83
2023-02-02T18:28:05.279Z,25.10
2023-02-02T18:31:10.681Z,20.48
2023-02-02T18:34:14.069Z,20.63
2023-02-02T18:37:18.552Z,18.50
2023-02-02T18:40:23.765Z,36.55
2023-02-02T18:43:27.490Z,20.38
2023-02-02T18:46:33.822Z,20.38
2023-02-02T18:49:38.597Z,19.67
2023-02-02T18:52:43.312Z,22.40
2023-02-02T18:55:47.184Z,20.23
2023-02-02T18:58:59.742Z,22.35
2023-02-02T19:02:04.007Z,15.50
2023-02-02T19:05:26.792Z,21.98
2023-02-02T19:08:33.568Z,23.45
2023-02-02T19:11:42.917Z,24.58
2023-02-02T19:14:46.685Z,29.73
2023-02-02T19:17:52.860Z,28.13
2023-02-02T19:20:55.995Z,27.52
2023-02-02T19:24:01.143Z,27.70
2023-02-02T19:27:15.652Z,25.15
2023-02-02T19:30:23.158Z,23.25
2023-02-02T19:33:41.420Z,24.98
2023-02-02T19:36:46.205Z,20.23
2023-02-02T19:39:51.027Z,24.75
2023-02-02T19:43:00.624Z,25.48
2023-02-02T19:46:10.687Z,26.50
2023-02-02T19:49:19.507Z,25.50
2023-02-02T19:52:26.855Z,23.85
2023-02-02T19:55:37.363Z,24.05
2023-02-02T19:58:40.823Z,23.63
2023-02-02T20:01:45.898Z,25.77
2023-02-02T20:04:59.670Z,24.50
2023-02-02T20:08:09.295Z,32.97
2023-02-02T20:11:32.155Z,35.10
2023-02-02T20:14:36.829Z,32.13
2023-02-02T20:17:41.799Z,38.42
2023-02-02T20:20:50.037Z,35.42
2023-02-02T20:23:53.310Z,28.60
2023-02-02T20:27:06.122Z,34.28
2023-02-02T20:30:25.599Z,38.15
2023-02-02T20:33:29.294Z,29.80
2023-02-02T20:36:41.789Z,29.95
2023-02-02T20:39:49.858Z,27.60
2023-02-02T20:42:54.410Z,29.42
2023-02-02T20:45:58.352Z,27.70
2023-02-02T20:52:23.841Z,23.00
2023-02-02T20:55:28.230Z,20.55
2023-02-02T20:58:32.702Z,18.85
2023-02-02T21:01:36.094Z,18.65
2023-02-02T21:04:39.120Z,22.65
2023-02-02T21:07:45.039Z,21.52
2023-02-02T21:10:50.548Z,18.73
2023-02-02T21:13:56.104Z,19.60
2023-02-02T21:17:14.004Z,13.75
2023-02-02T21:20:25.257Z,11.98
2023-02-02T21:23:30.460Z,6.18
2023-02-02T21:26:33.995Z,7.57
2023-02-02T21:29:39.421Z,6.88
2023-02-02T21:32:58.863Z,5.30
2023-02-02T21:36:31.061Z,6.60
2023-02-02T21:39:40.306Z,7.60
2023-02-02T21:42:52.624Z,10.63
2023-02-02T21:46:02.341Z,8.15
2023-02-02T21:49:21.772Z,6.20
2023-02-02T21:52:26.834Z,6.32
2023-02-02T21:55:36.754Z,5.53
2023-02-02T21:58:40.861Z,5.72
2023-02-02T22:04:50.331Z,6.25
2023-02-02T22:07:58.480Z,5.13
2023-02-02T22:11:03.380Z,11.23
2023-02-02T22:14:19.915Z,4.85
2023-02-02T22:17:27.694Z,8.05
2023-02-02T22:20:35.871Z,11.80
2023-02-02T22:23:40.830Z,5.65
2023-02-02T22:26:44.225Z,9.57
2023-02-02T22:29:47.504Z,6.35
2023-02-02T22:32:52.194Z,6.03
2023-02-02T22:35:57.600Z,6.93
2023-02-02T22:39:03.743Z,5.32
2023-02-02T22:42:08.304Z,6.80
2023-02-02T22:45:14.675Z,9.55
2023-02-02T22:48:24.021Z,6.90
2023-02-02T22:51:28.540Z,4.68
2023-02-02T22:54:32.039Z,4.80
2023-02-02T22:57:35.956Z,6.90
2023-02-02T23:00:39.719Z,6.93
2023-02-02T23:03:44.237Z,6.60
2023-02-02T23:06:47.602Z,6.68
2023-02-02T23:09:51.092Z,4.40
2023-02-02T23:12:58.286Z,6.45
2023-02-02T23:16:02.302Z,11.25
2023-02-02T23:19:06.949Z,6.72
2023-02-02T23:22:10.125Z,7.28
2023-02-02T23:25:14.449Z,8.77
2023-02-02T23:28:17.562Z,6.55
2023-02-02T23:31:20.880Z,7.67
2023-02-02T23:34:25.437Z,4.47
2023-02-02T23:37:28.696Z,5.45
2023-02-02T23:40:31.861Z,5.03
2023-02-02T23:43:35.318Z,8.93
2023-02-02T23:46:39.800Z,10.00
2023-02-02T23:49:44.785Z,6.63
2023-02-02T23:52:47.888Z,6.53
2023-02-02T23:55:51.056Z,5.18
2023-02-02T23:58:54.234Z,9.23
